Demopolis, Alabama
Current Conditions -  °F | °C
As of 3:55 PM on Saturday 25 Oct 2014 (Local Time) from KDYA Reporting Station
Clear Clear  
Wind Chill: 26°   Ceiling: Unl
Heat Index: 26°   Visibility: 10mi
Dew Point: 13°   Wind: 0mph
Humidity: 44%   Direction: NA
Pressure: 30.04"   Gusts: NA
Location:  32.5°N, 87.84°W
Report Text: KDYA 252055Z AUTO 00000KT 10SM CLR 26/13 A3004 RMK AO2 T02610128
Loading
Personal Weather Stations






























Interactive Weather Map
Tropical Storm Tracking
New forecast layout! Learn more

10-Day Weather Forecast

Advertisements
Track Severe Weather on mobile